Time;durP1;ratioP1;P1;durP2;ratioP2;P2;SDS_P1;SDS_P2;PMS_P1;PMS_P2;Temp;Humidity;BMP_temperature;BMP_pressure;BME280_temperature;BME280_humidity;BME280_pressure;Samples;Min_cycle;Max_cycle;Signal;HPM_P1;HPM_P2
2024/03/16 00:00:06;;;;;;;13.65;3.65;;;;;;;10.36;100.00;100996.66;6084598;19;20002;-73
2024/03/16 00:02:13;;;;;;;15.18;4.80;;;;;;;10.39;100.00;100995.69;6087476;19;20620;-73
2024/03/16 00:04:21;;;;;;;12.93;3.13;;;;;;;10.40;100.00;101000.91;6089592;19;20140;-76
2024/03/16 00:06:29;;;;;;;10.85;3.63;;;;;;;10.44;100.00;101002.47;6090258;19;20002;-76
2024/03/16 00:08:34;;;;;;;13.82;3.65;;;;;;;10.36;100.00;101001.06;6088877;19;20038;-76
2024/03/16 00:10:39;;;;;;;13.20;3.97;;;;;;;10.35;100.00;101000.19;6088870;19;20127;-75
2024/03/16 00:12:44;;;;;;;20.55;3.95;;;;;;;10.41;100.00;101012.25;6085447;19;20127;-76
2024/03/16 00:14:49;;;;;;;20.40;4.95;;;;;;;10.39;100.00;101014.06;6084990;19;20010;-73
2024/03/16 00:16:57;;;;;;;21.83;4.60;;;;;;;10.36;100.00;101012.41;6087219;19;20028;-73
2024/03/16 00:19:02;;;;;;;16.88;4.85;;;;;;;10.35;100.00;101021.22;6086880;19;20301;-73
2024/03/16 00:21:13;;;;;;;21.73;4.47;;;;;;;10.31;100.00;101025.72;6085814;19;20478;-73
2024/03/16 00:23:19;;;;;;;25.15;6.68;;;;;;;10.32;100.00;101024.81;6086801;19;20462;-73
2024/03/16 00:25:27;;;;;;;24.40;6.78;;;;;;;10.23;100.00;101034.75;6088600;19;20015;-76
2024/03/16 00:27:33;;;;;;;21.10;5.03;;;;;;;10.21;100.00;101040.03;6087691;19;20017;-77
2024/03/16 00:29:38;;;;;;;16.45;4.93;;;;;;;10.11;100.00;101054.44;6086105;19;20007;-76
2024/03/16 00:31:40;;;;;;;14.95;3.75;;;;;;;9.97;100.00;101052.28;6085640;19;20070;-72
2024/03/16 00:33:46;;;;;;;11.20;4.43;;;;;;;9.85;100.00;101052.72;6088076;19;20032;-72
2024/03/16 00:35:52;;;;;;;11.82;3.83;;;;;;;9.82;100.00;101060.66;6086458;19;20010;-71
2024/03/16 00:38:00;;;;;;;17.27;4.22;;;;;;;9.75;100.00;101072.31;6085155;19;20023;-75
2024/03/16 00:40:07;;;;;;;10.00;3.45;;;;;;;9.62;100.00;101072.69;6084473;19;20373;-75
2024/03/16 00:42:12;;;;;;;12.88;3.53;;;;;;;9.52;100.00;101079.16;6087958;19;20020;-75
2024/03/16 00:44:18;;;;;;;7.20;3.10;;;;;;;9.47;100.00;101077.59;6087127;19;20015;-72
2024/03/16 00:46:23;;;;;;;10.02;2.67;;;;;;;9.40;100.00;101084.78;6084390;19;20086;-72
2024/03/16 00:48:28;;;;;;;9.35;2.40;;;;;;;9.44;100.00;101089.03;6083929;19;20015;-73
2024/03/16 00:50:33;;;;;;;11.15;3.15;;;;;;;9.42;100.00;101101.34;6086221;19;20065;-76
2024/03/16 00:52:39;;;;;;;7.68;2.58;;;;;;;9.44;100.00;101097.75;6083578;19;20414;-76
2024/03/16 00:54:46;;;;;;;8.73;2.67;;;;;;;9.41;100.00;101097.84;6085386;19;20021;-75
2024/03/16 00:56:52;;;;;;;8.00;2.95;;;;;;;9.38;100.00;101107.59;6089384;19;20762;-76
2024/03/16 00:58:58;;;;;;;3.40;2.38;;;;;;;9.34;100.00;101105.97;6092075;19;20003;-76
2024/03/16 01:01:05;;;;;;;4.20;2.47;;;;;;;9.27;100.00;101114.91;6090196;19;20486;-76
2024/03/16 01:03:10;;;;;;;9.48;2.63;;;;;;;9.27;100.00;101117.53;6088764;19;20007;-72
2024/03/16 01:05:16;;;;;;;7.97;2.70;;;;;;;9.21;100.00;101116.81;6087498;19;20010;-72
2024/03/16 01:07:23;;;;;;;5.95;2.28;;;;;;;9.06;100.00;101126.91;6088145;19;20038;-72
2024/03/16 01:09:29;;;;;;;5.43;2.33;;;;;;;9.06;100.00;101127.78;6088372;19;20007;-72
2024/03/16 01:11:39;;;;;;;4.28;2.30;;;;;;;8.95;100.00;101141.22;6088755;19;20021;-73
2024/03/16 01:13:44;;;;;;;9.10;2.65;;;;;;;8.98;100.00;101150.75;6087741;19;20599;-74
2024/03/16 01:15:49;;;;;;;6.30;2.75;;;;;;;8.86;100.00;101151.94;6087291;19;20031;-73
2024/03/16 01:17:55;;;;;;;5.35;2.80;;;;;;;8.76;100.00;101164.44;6088737;19;20082;-72
2024/03/16 01:19:57;;;;;;;8.15;2.55;;;;;;;8.50;100.00;101169.53;6088154;19;20018;-72
2024/03/16 01:22:02;;;;;;;11.88;2.97;;;;;;;8.40;100.00;101162.81;6092399;19;20031;-73
2024/03/16 01:24:13;;;;;;;3.60;2.67;;;;;;;8.34;100.00;101174.28;6088959;19;20474;-75
2024/03/16 01:26:15;;;;;;;4.80;2.25;;;;;;;8.22;100.00;101172.84;6087354;19;20101;-72
2024/03/16 01:28:27;;;;;;;4.13;2.45;;;;;;;8.16;100.00;101178.22;6090549;19;20019;-75
2024/03/16 01:30:34;;;;;;;6.88;2.30;;;;;;;8.10;100.00;101181.84;6089302;19;20000;-74
2024/03/16 01:32:39;;;;;;;4.38;2.35;;;;;;;8.09;100.00;101187.13;6091435;19;20021;-75
2024/03/16 01:34:47;;;;;;;11.38;3.08;;;;;;;8.10;100.00;101181.84;6092677;19;20003;-72
2024/03/16 01:36:50;;;;;;;6.63;2.67;;;;;;;8.15;100.00;101189.59;6089680;19;20427;-75
2024/03/16 01:38:55;;;;;;;14.98;3.47;;;;;;;8.00;100.00;101187.34;6092305;19;20014;-75
2024/03/16 01:41:00;;;;;;;6.57;3.05;;;;;;;8.16;100.00;101195.69;6090863;19;20578;-75
2024/03/16 01:43:06;;;;;;;7.95;3.35;;;;;;;8.26;100.00;101194.56;6092365;19;20369;-75
2024/03/16 01:45:17;;;;;;;6.90;3.13;;;;;;;8.21;100.00;101186.81;6088525;19;20014;-75
2024/03/16 01:47:22;;;;;;;7.20;2.70;;;;;;;8.19;100.00;101193.88;6089799;19;20003;-75
2024/03/16 01:49:28;;;;;;;7.60;3.42;;;;;;;8.18;100.00;101199.97;6090580;19;20721;-74
2024/03/16 01:51:30;;;;;;;9.43;3.85;;;;;;;8.17;100.00;101200.91;6089369;19;20010;-75
2024/03/16 01:53:35;;;;;;;13.07;3.35;;;;;;;8.22;100.00;101199.03;6085579;19;20009;-75
2024/03/16 01:55:41;;;;;;;15.00;3.75;;;;;;;8.16;100.00;101204.38;6088227;19;22367;-73
2024/03/16 01:57:47;;;;;;;6.10;3.20;;;;;;;8.17;100.00;101211.38;6089582;19;20430;-72
2024/03/16 01:59:52;;;;;;;9.45;4.15;;;;;;;8.19;100.00;101206.97;6087123;19;20046;-74
2024/03/16 02:02:03;;;;;;;10.65;3.83;;;;;;;8.22;100.00;101219.13;6088313;19;20120;-73
2024/03/16 02:04:09;;;;;;;9.15;3.38;;;;;;;8.19;100.00;101214.81;6085337;19;20006;-73
2024/03/16 02:06:14;;;;;;;10.85;3.55;;;;;;;8.22;100.00;101224.34;6087922;19;20043;-73
2024/03/16 02:08:19;;;;;;;10.30;3.88;;;;;;;8.22;100.00;101234.81;6083898;19;20010;-73
2024/03/16 02:10:25;;;;;;;8.68;3.47;;;;;;;8.17;100.00;101242.78;6086666;19;20014;-73
2024/03/16 02:12:27;;;;;;;8.55;4.05;;;;;;;8.18;100.00;101241.88;6087531;19;20010;-73
2024/03/16 02:14:32;;;;;;;17.45;3.45;;;;;;;8.02;100.00;101256.22;6087409;19;20010;-73
2024/03/16 02:16:37;;;;;;;9.93;3.22;;;;;;;7.89;100.00;101259.13;6088214;19;20468;-73
2024/03/16 02:18:45;;;;;;;5.80;2.20;;;;;;;7.85;100.00;101260.09;6086418;19;20422;-74
2024/03/16 02:20:51;;;;;;;6.55;2.42;;;;;;;7.84;100.00;101260.13;6086997;19;20546;-74
2024/03/16 02:23:01;;;;;;;6.40;1.92;;;;;;;7.71;100.00;101262.13;6087647;19;20009;-73
2024/03/16 02:25:09;;;;;;;5.97;2.10;;;;;;;7.71;100.00;101267.38;6088079;19;20035;-73
2024/03/16 02:27:14;;;;;;;4.40;1.58;;;;;;;7.75;100.00;101269.03;6086755;19;20010;-72
2024/03/16 02:29:22;;;;;;;6.93;2.53;;;;;;;7.73;100.00;101264.72;6088561;19;20006;-75
2024/03/16 02:31:27;;;;;;;6.47;2.08;;;;;;;7.70;100.00;101268.28;6083647;19;20019;-73
2024/03/16 02:33:32;;;;;;;4.95;2.30;;;;;;;7.74;100.00;101271.69;6085831;19;20018;-73
2024/03/16 02:35:38;;;;;;;4.10;1.77;;;;;;;7.73;100.00;101275.19;6087618;19;20003;-78
2024/03/16 02:37:46;;;;;;;4.50;1.95;;;;;;;7.72;100.00;101282.19;6085880;19;20036;-74
2024/03/16 02:39:53;;;;;;;5.00;1.50;;;;;;;7.68;100.00;101281.38;6086689;19;20945;-73
2024/03/16 02:41:58;;;;;;;5.70;1.98;;;;;;;7.65;100.00;101289.28;6086522;19;20521;-74
2024/03/16 02:44:05;;;;;;;4.45;1.58;;;;;;;7.67;100.00;101291.88;6086083;19;20561;-74
2024/03/16 02:46:09;;;;;;;4.35;1.73;;;;;;;7.59;100.00;101288.56;6086182;19;20926;-73
2024/03/16 02:48:15;;;;;;;1.52;1.40;;;;;;;7.60;100.00;101292.91;6085488;19;20006;-75
2024/03/16 02:50:20;;;;;;;11.07;1.73;;;;;;;7.60;100.00;101295.50;6085460;19;20011;-74
2024/03/16 02:52:25;;;;;;;5.07;1.63;;;;;;;7.59;100.00;101306.88;6081921;19;20432;-75
2024/03/16 02:54:31;;;;;;;6.45;2.28;;;;;;;7.55;100.00;101302.59;6082182;19;20013;-72
2024/03/16 02:56:40;;;;;;;4.15;1.48;;;;;;;7.60;100.00;101305.97;6084030;19;20007;-74
2024/03/16 02:58:46;;;;;;;4.93;2.00;;;;;;;7.59;100.00;101309.50;6086119;19;20629;-75
2024/03/16 03:00:52;;;;;;;4.30;1.20;;;;;;;7.56;100.00;101322.66;6086406;19;20027;-74
2024/03/16 03:02:57;;;;;;;3.88;2.15;;;;;;;7.52;100.00;101323.59;6088146;19;20491;-77
2024/03/16 03:05:00;;;;;;;5.40;1.85;;;;;;;7.52;100.00;101327.06;6085877;19;20019;-74
2024/03/16 03:07:06;;;;;;;2.70;2.25;;;;;;;7.53;100.00;101335.75;6085665;19;20010;-76
2024/03/16 03:09:13;;;;;;;1.75;1.55;;;;;;;7.51;100.00;101333.19;6085935;19;20007;-76
2024/03/16 03:11:21;;;;;;;4.35;2.00;;;;;;;7.53;100.00;101330.53;6084815;19;20523;-74
2024/03/16 03:13:32;;;;;;;2.13;1.20;;;;;;;7.48;100.00;101339.34;6084316;19;20009;-73
2024/03/16 03:15:37;;;;;;;1.40;1.30;;;;;;;7.50;100.00;101341.91;6085278;19;20600;-77
2024/03/16 03:17:40;;;;;;;2.17;1.98;;;;;;;7.43;100.00;101341.19;6085483;19;20499;-76
2024/03/16 03:19:47;;;;;;;1.30;1.20;;;;;;;7.45;100.00;101344.63;6086137;19;20035;-76
2024/03/16 03:21:53;;;;;;;2.80;1.50;;;;;;;7.47;100.00;101357.66;6088716;19;20002;-76
2024/03/16 03:23:55;;;;;;;1.10;1.00;;;;;;;7.42;100.00;101355.13;6087804;19;20002;-77
2024/03/16 03:26:00;;;;;;;8.35;1.98;;;;;;;7.46;100.00;101361.19;6088136;19;20011;-77
2024/03/16 03:28:06;;;;;;;11.65;1.63;;;;;;;7.47;100.00;101370.72;6087494;19;20002;-76
2024/03/16 03:30:18;;;;;;;6.38;1.73;;;;;;;7.56;100.00;101372.34;6088952;19;20415;-77
2024/03/16 03:32:20;;;;;;;7.80;1.98;;;;;;;7.48;100.00;101368.09;6088540;19;20332;-77
2024/03/16 03:34:28;;;;;;;1.65;1.50;;;;;;;7.43;100.00;101369.09;6086118;19;20467;-73
2024/03/16 03:36:32;;;;;;;2.95;1.02;;;;;;;7.44;100.00;101376.03;6080717;19;20485;-74
2024/03/16 03:38:38;;;;;;;3.53;1.65;;;;;;;7.41;100.00;101373.47;6084940;19;20319;-73
2024/03/16 03:40:43;;;;;;;1.45;1.30;;;;;;;7.40;100.00;101374.38;6086258;19;20035;-73
2024/03/16 03:42:48;;;;;;;1.75;1.23;;;;;;;7.39;100.00;101380.47;6084731;19;20030;-73
2024/03/16 03:45:00;;;;;;;3.80;1.40;;;;;;;7.39;100.00;101386.56;6084030;19;22059;-77
2024/03/16 03:47:08;;;;;;;3.17;1.50;;;;;;;7.43;100.00;101397.84;6084374;19;20010;-73
2024/03/16 03:49:11;;;;;;;9.57;1.65;;;;;;;7.45;100.00;101403.88;6084401;19;20022;-73
2024/03/16 03:51:16;;;;;;;3.95;1.48;;;;;;;7.44;100.00;101400.41;6083306;19;20298;-75
2024/03/16 03:53:23;;;;;;;4.68;1.52;;;;;;;7.45;100.00;101419.59;6083686;19;20014;-77
2024/03/16 03:55:26;;;;;;;5.28;1.65;;;;;;;7.46;100.00;101419.56;6087152;19;20006;-77
2024/03/16 03:57:31;;;;;;;6.50;2.63;;;;;;;7.45;100.00;101417.84;6085346;19;20007;-78
2024/03/16 03:59:36;;;;;;;5.28;1.63;;;;;;;7.45;100.00;101424.81;6085961;19;20006;-74
2024/03/16 04:01:39;;;;;;;4.97;1.85;;;;;;;7.43;100.00;101424.84;6084307;19;20018;-73
2024/03/16 04:03:47;;;;;;;3.38;1.45;;;;;;;7.38;100.00;101433.69;6081999;19;20019;-77
2024/03/16 04:05:58;;;;;;;3.80;1.50;;;;;;;7.38;100.00;101437.16;6084275;19;20003;-78
2024/03/16 04:08:05;;;;;;;7.35;1.55;;;;;;;7.37;100.00;101438.06;6087186;19;21056;-78
2024/03/16 04:10:10;;;;;;;3.83;1.27;;;;;;;7.33;100.00;101438.97;6087419;19;20371;-78
2024/03/16 04:12:15;;;;;;;3.78;1.90;;;;;;;7.30;100.00;101446.88;6085568;19;20010;-80
2024/03/16 04:14:22;;;;;;;9.10;1.98;;;;;;;7.33;100.00;101452.06;6086836;19;20550;-78
2024/03/16 04:16:27;;;;;;;9.18;1.50;;;;;;;7.34;100.00;101445.91;6086070;19;20011;-74
2024/03/16 04:18:32;;;;;;;10.57;1.92;;;;;;;7.31;100.00;101459.06;6086087;19;20474;-73
2024/03/16 04:20:40;;;;;;;4.57;1.90;;;;;;;7.30;100.00;101456.47;6082080;19;20466;-73
2024/03/16 04:22:43;;;;;;;3.47;1.60;;;;;;;7.28;100.00;101466.09;6079798;19;20454;-73
2024/03/16 04:24:48;;;;;;;;;;;;;;;7.28;100.00;101460.88;6085456;19;20050;-72
2024/03/16 04:26:53;;;;;;;4.78;1.88;;;;;;;7.30;100.00;101461.72;6082638;19;20387;-78
2024/03/16 04:28:59;;;;;;;5.50;1.35;;;;;;;7.24;100.00;101471.38;6084032;19;20015;-73
2024/03/16 04:31:05;;;;;;;11.77;1.70;;;;;;;7.25;100.00;101474.84;6089574;19;20007;-73
2024/03/16 04:33:10;;;;;;;6.78;1.38;;;;;;;7.28;100.00;101477.41;6088765;19;20010;-73
2024/03/16 04:35:16;;;;;;;7.78;2.22;;;;;;;7.27;100.00;101478.31;6088554;19;20070;-73
2024/03/16 04:37:23;;;;;;;11.48;1.98;;;;;;;7.25;100.00;101483.56;6089579;19;20011;-72
2024/03/16 04:39:28;;;;;;;10.23;2.08;;;;;;;7.29;100.00;101481.72;6088486;19;20033;-78
2024/03/16 04:41:33;;;;;;;6.63;2.28;;;;;;;7.29;100.00;101491.34;6091433;19;20010;-72
2024/03/16 04:43:38;;;;;;;5.10;1.75;;;;;;;7.29;100.00;101494.81;6090890;19;20017;-74
2024/03/16 04:45:43;;;;;;;10.50;1.95;;;;;;;7.28;100.00;101502.69;6090855;19;20264;-72
2024/03/16 04:47:48;;;;;;;4.43;1.38;;;;;;;7.22;100.00;101498.44;6092757;19;20372;-76
2024/03/16 04:49:54;;;;;;;6.60;1.48;;;;;;;7.15;100.00;101509.88;6091482;19;20021;-77
2024/03/16 04:51:56;;;;;;;4.15;1.55;;;;;;;7.14;100.00;101506.38;6091568;19;20007;-73
2024/03/16 04:54:04;;;;;;;5.30;1.60;;;;;;;7.12;100.00;101510.78;6087043;19;20782;-78
2024/03/16 04:56:09;;;;;;;7.43;1.48;;;;;;;7.13;100.00;101519.47;6092986;19;20003;-77
2024/03/16 04:58:11;;;;;;;1.48;1.38;;;;;;;7.16;100.00;101528.16;6092683;19;20344;-76
2024/03/16 05:00:17;;;;;;;3.92;1.35;;;;;;;7.17;100.00;101532.47;6091910;19;20003;-77
2024/03/16 05:02:20;;;;;;;3.15;1.20;;;;;;;7.16;100.00;101546.44;6092145;19;20014;-77
2024/03/16 05:04:26;;;;;;;5.97;1.38;;;;;;;7.10;100.00;101548.28;6094536;19;20010;-76
2024/03/16 05:06:31;;;;;;;2.00;1.17;;;;;;;6.98;100.00;101559.78;6093371;19;19999;-77
2024/03/16 05:08:36;;;;;;;5.18;1.55;;;;;;;6.82;100.00;101562.59;6094148;19;20086;-76
2024/03/16 05:10:45;;;;;;;5.63;1.38;;;;;;;6.77;100.00;101569.63;6093483;19;20010;-75
2024/03/16 05:12:51;;;;;;;5.18;1.33;;;;;;;6.74;100.00;101582.72;6093534;19;20484;-75
2024/03/16 05:14:56;;;;;;;8.30;2.17;;;;;;;6.74;100.00;101581.84;6095506;19;20014;-77
2024/03/16 05:17:01;;;;;;;4.40;1.65;;;;;;;6.71;100.00;101581.88;6093954;19;20019;-80
2024/03/16 05:19:09;;;;;;;9.93;1.70;;;;;;;6.70;100.00;101593.22;6092535;19;20036;-73
2024/03/16 05:21:15;;;;;;;3.00;1.55;;;;;;;6.70;100.00;101593.22;6091304;19;20015;-77
2024/03/16 05:23:20;;;;;;;5.57;1.50;;;;;;;6.63;100.00;101604.63;6092001;19;20006;-73
2024/03/16 05:25:28;;;;;;;7.13;2.13;;;;;;;6.64;100.00;101614.22;6087575;19;20010;-74
2024/03/16 05:27:36;;;;;;;1.40;1.20;;;;;;;6.68;100.00;101615.88;6090808;19;20050;-77
2024/03/16 05:29:41;;;;;;;6.00;2.28;;;;;;;6.60;100.00;101618.59;6092067;19;20050;-77
2024/03/16 05:31:59;;;;;;;7.47;2.03;;;;;;;6.63;100.00;101625.53;6091933;19;20011;-75
2024/03/16 05:34:05;;;;;;;4.07;1.50;;;;;;;6.61;100.00;101615.09;6093781;19;20018;-77
2024/03/16 05:36:09;;;;;;;2.75;1.50;;;;;;;6.64;100.00;101620.28;6092395;19;20090;-78
2024/03/16 05:38:15;;;;;;;7.60;2.10;;;;;;;6.66;100.00;101628.97;6091377;19;20356;-79
2024/03/16 05:40:20;;;;;;;5.82;2.00;;;;;;;6.71;100.00;101641.97;6090947;19;20010;-77
2024/03/16 05:42:23;;;;;;;3.80;2.22;;;;;;;6.67;100.00;101654.19;6089100;19;20007;-79
2024/03/16 05:44:31;;;;;;;;;;;;;;;6.75;100.00;101661.97;6092546;19;20011;-75
2024/03/16 05:46:36;;;;;;;10.15;2.38;;;;;;;6.75;100.00;101654.97;6091987;19;20265;-78
2024/03/16 05:48:41;;;;;;;6.47;2.17;;;;;;;6.72;100.00;101660.25;6090834;19;20630;-78
2024/03/16 05:50:47;;;;;;;3.35;1.50;;;;;;;6.71;100.00;101668.94;6089043;19;20792;-77
2024/03/16 05:52:52;;;;;;;6.10;2.03;;;;;;;6.68;100.00;101674.19;6080818;19;20022;-74
2024/03/16 05:54:57;;;;;;;3.45;1.50;;;;;;;6.70;100.00;101682.03;6091648;19;20006;-77
2024/03/16 05:57:04;;;;;;;5.63;1.80;;;;;;;6.71;100.00;101686.38;6088538;19;20007;-79
2024/03/16 05:59:09;;;;;;;8.50;2.30;;;;;;;6.71;100.00;101686.38;6088583;19;20014;-78
2024/03/16 06:01:17;;;;;;;8.50;2.00;;;;;;;6.74;100.00;101697.66;6092476;19;20499;-80
2024/03/16 06:03:29;;;;;;;9.77;2.25;;;;;;;6.78;100.00;101703.72;6089714;19;20011;-75
2024/03/16 06:05:40;;;;;;;4.40;2.07;;;;;;;6.79;100.00;101710.66;6088508;19;20016;-75
2024/03/16 06:07:46;;;;;;;12.40;2.25;;;;;;;6.85;100.00;101712.38;6089670;19;20255;-75
2024/03/16 06:09:48;;;;;;;3.65;1.83;;;;;;;6.84;100.00;101721.91;6087976;19;20015;-78
2024/03/16 06:11:54;;;;;;;9.38;2.03;;;;;;;6.85;100.00;101723.66;6085942;19;20013;-79
2024/03/16 06:13:56;;;;;;;6.85;2.20;;;;;;;6.90;100.00;101720.97;6089758;19;20014;-78
2024/03/16 06:16:02;;;;;;;3.92;1.50;;;;;;;6.90;100.00;101734.94;6088230;19;20013;-73
2024/03/16 06:18:10;;;;;;;3.80;1.70;;;;;;;6.91;100.00;101733.19;6090350;19;20316;-79
2024/03/16 06:20:15;;;;;;;5.50;2.38;;;;;;;6.92;100.00;101740.97;6088505;19;20013;-80
2024/03/16 06:22:20;;;;;;;6.90;2.35;;;;;;;6.90;100.00;101739.28;6089560;19;20588;-74
2024/03/16 06:24:26;;;;;;;6.90;2.35;;;;;;;6.91;100.00;101739.28;6086696;19;20357;-73
2024/03/16 06:26:34;;;;;;;1.85;1.08;;;;;;;6.91;100.00;101748.88;6086570;19;20003;-74
2024/03/16 06:28:39;;;;;;;1.40;1.30;;;;;;;6.87;100.00;101747.16;6081367;19;20425;-73
2024/03/16 06:30:48;;;;;;;5.97;1.63;;;;;;;6.86;100.00;101751.50;6085798;19;20380;-73
2024/03/16 06:33:08;;;;;;;3.63;1.48;;;;;;;6.86;100.00;101756.75;6084928;19;20010;-73
2024/03/16 06:35:17;;;;;;;4.78;1.95;;;;;;;6.90;100.00;101755.84;6089349;19;20017;-73
2024/03/16 06:37:22;;;;;;;7.47;2.10;;;;;;;6.88;100.00;101765.44;6088834;19;20017;-75
2024/03/16 06:39:27;;;;;;;3.65;1.58;;;;;;;6.92;100.00;101766.25;6088199;19;20026;-73
2024/03/16 06:41:33;;;;;;;6.93;1.40;;;;;;;6.90;100.00;101776.75;6088088;19;20011;-76
2024/03/16 06:43:38;;;;;;;4.63;1.63;;;;;;;6.93;100.00;101792.38;6087475;19;20019;-76
2024/03/16 06:45:44;;;;;;;1.48;1.13;;;;;;;6.73;100.00;101791.72;6088259;19;20343;-73
2024/03/16 06:47:46;;;;;;;2.38;1.02;;;;;;;6.68;100.00;101806.56;6086248;19;20006;-72
2024/03/16 06:49:52;;;;;;;4.65;1.98;;;;;;;6.62;100.00;101817.06;6088286;19;20477;-72
2024/03/16 06:52:00;;;;;;;3.40;1.38;;;;;;;6.54;100.00;101817.97;6088356;19;20505;-72
2024/03/16 06:54:06;;;;;;;6.32;1.60;;;;;;;6.53;100.00;101826.72;6083502;19;20030;-74
2024/03/16 06:56:14;;;;;;;3.50;1.42;;;;;;;6.65;100.00;101836.16;6087597;19;20174;-73
2024/03/16 06:58:17;;;;;;;4.80;2.08;;;;;;;6.66;100.00;101831.81;6086784;19;20459;-74
2024/03/16 07:00:22;;;;;;;3.03;1.65;;;;;;;6.64;100.00;101837.06;6086001;19;20565;-73
2024/03/16 07:02:27;;;;;;;1.25;1.17;;;;;;;6.74;100.00;101840.44;6084061;19;20015;-73
2024/03/16 07:04:32;;;;;;;4.05;1.77;;;;;;;6.76;100.00;101839.56;6084701;19;20475;-72
2024/03/16 07:06:38;;;;;;;2.28;1.52;;;;;;;6.80;100.00;101838.66;6085420;19;20010;-76
2024/03/16 07:08:46;;;;;;;5.78;2.08;;;;;;;6.74;100.00;101851.78;6085408;19;20006;-75
2024/03/16 07:10:56;;;;;;;6.18;1.85;;;;;;;6.77;100.00;101850.88;6085683;19;20082;-75
2024/03/16 07:13:02;;;;;;;2.95;2.53;;;;;;;6.74;100.00;101859.63;6082379;19;20074;-75
2024/03/16 07:15:08;;;;;;;6.32;1.50;;;;;;;6.75;100.00;101858.72;6085072;19;20261;-75
2024/03/16 07:17:13;;;;;;;5.38;1.13;;;;;;;6.92;100.00;101865.56;6085401;19;20003;-73
2024/03/16 07:19:23;;;;;;;4.95;2.20;;;;;;;6.86;100.00;101874.31;6085658;19;20010;-72
2024/03/16 07:21:28;;;;;;;6.10;2.03;;;;;;;6.90;100.00;101869.91;6083184;19;20366;-77
2024/03/16 07:23:33;;;;;;;2.92;1.52;;;;;;;6.97;100.00;101871.59;6084387;19;20010;-76
2024/03/16 07:25:41;;;;;;;8.77;1.95;;;;;;;6.97;100.00;101875.06;6084105;19;20043;-76
2024/03/16 07:27:44;;;;;;;3.53;1.70;;;;;;;6.95;100.00;101876.88;6086154;19;20003;-75
2024/03/16 07:29:49;;;;;;;4.82;1.50;;;;;;;7.07;100.00;101875.88;6087602;19;20011;-76
2024/03/16 07:31:56;;;;;;;6.82;2.42;;;;;;;7.10;100.00;101883.69;6086396;19;20010;-75
2024/03/16 07:34:03;;;;;;;2.72;1.30;;;;;;;7.22;100.00;101890.56;6083976;19;20034;-75
2024/03/16 07:36:09;;;;;;;3.20;1.60;;;;;;;7.19;100.00;101891.44;6086641;19;20450;-74
2024/03/16 07:38:14;;;;;;;6.72;1.55;;;;;;;7.23;100.00;101897.50;6085567;19;20002;-76
2024/03/16 07:40:23;;;;;;;2.40;1.08;;;;;;;7.33;100.00;101904.38;6085875;19;20006;-74
2024/03/16 07:42:34;;;;;;;3.35;1.23;;;;;;;7.38;100.00;101910.44;6085438;19;20011;-76
2024/03/16 07:44:40;;;;;;;2.00;1.48;;;;;;;7.46;100.00;101918.19;6086226;19;20014;-74
2024/03/16 07:46:48;;;;;;;5.43;1.95;;;;;;;7.47;100.00;101919.91;6085884;19;20007;-74
2024/03/16 07:48:50;;;;;;;7.10;1.58;;;;;;;7.40;100.00;101919.13;6084591;19;20327;-74
2024/03/16 07:51:04;;;;;;;;;;;;;;;7.43;100.00;101913.88;6085365;19;20023;-73
2024/03/16 07:53:10;;;;;;;5.00;1.83;;;;;;;7.52;100.00;101919.88;6077853;19;20343;-73
2024/03/16 07:55:12;;;;;;;5.88;2.22;;;;;;;7.54;100.00;101920.75;6081168;19;20006;-72
2024/03/16 07:57:17;;;;;;;;;;;;;;;7.46;100.00;101928.66;6083892;19;20015;-74
2024/03/16 07:59:23;;;;;;;3.92;1.20;;;;;;;7.50;100.00;101926.88;6084518;19;19943;-76
2024/03/16 08:01:29;;;;;;;4.85;1.58;;;;;;;7.43;100.00;101920.84;6086476;19;20020;-74
2024/03/16 08:03:34;;;;;;;6.70;1.60;;;;;;;7.50;100.00;101926.88;6082998;19;20017;-74
2024/03/16 08:05:39;;;;;;;6.00;1.10;;;;;;;7.51;100.00;101931.22;6082707;19;20014;-74
2024/03/16 08:07:47;;;;;;;7.35;1.70;;;;;;;7.56;100.00;101927.69;6085280;19;20041;-74
2024/03/16 08:09:52;;;;;;;4.38;1.67;;;;;;;7.60;100.00;101938.97;6085354;19;20259;-74
2024/03/16 08:11:57;;;;;;;3.13;1.27;;;;;;;7.63;100.00;101938.94;6086589;19;20037;-74
2024/03/16 08:14:05;;;;;;;3.95;1.30;;;;;;;7.72;100.00;101940.59;6085390;19;20014;-74
2024/03/16 08:16:12;;;;;;;3.50;1.75;;;;;;;7.83;100.00;101943.97;6086075;19;20014;-74
2024/03/16 08:18:18;;;;;;;3.90;1.30;;;;;;;7.87;100.00;101943.91;6083945;19;20112;-74
2024/03/16 08:20:23;;;;;;;3.38;1.10;;;;;;;7.79;100.00;101950.09;6084710;19;20020;-75
2024/03/16 08:22:29;;;;;;;3.15;1.42;;;;;;;7.84;100.00;101941.31;6083377;19;20738;-76
2024/03/16 08:24:34;;;;;;;7.63;1.70;;;;;;;7.88;100.00;101947.41;6086887;19;20352;-75
2024/03/16 08:26:40;;;;;;;5.70;1.40;;;;;;;8.00;100.00;101954.22;6085386;19;20450;-74
2024/03/16 08:28:45;;;;;;;4.20;2.25;;;;;;;8.02;100.00;101952.47;6085553;19;20010;-74
2024/03/16 08:30:51;;;;;;;4.68;1.73;;;;;;;8.04;100.00;101963.78;6086017;19;20451;-73
2024/03/16 08:32:59;;;;;;;6.63;1.75;;;;;;;8.17;100.00;101957.50;6085643;19;20002;-74
2024/03/16 08:35:04;;;;;;;5.00;1.38;;;;;;;8.07;100.00;101961.13;6085116;19;20389;-73
2024/03/16 08:37:09;;;;;;;6.90;1.83;;;;;;;8.11;100.00;101954.97;6085446;19;20014;-73
2024/03/16 08:39:17;;;;;;;2.33;1.67;;;;;;;8.15;100.00;101967.13;6079244;19;20008;-75
2024/03/16 08:41:20;;;;;;;4.10;1.60;;;;;;;8.04;100.00;101972.50;6084811;19;20322;-74
2024/03/16 08:43:25;;;;;;;3.38;1.10;;;;;;;8.07;100.00;101977.69;6084709;19;20120;-74
2024/03/16 08:45:28;;;;;;;2.78;1.38;;;;;;;8.02;100.00;101986.50;6086299;19;20006;-74
2024/03/16 08:47:33;;;;;;;2.67;1.33;;;;;;;8.12;100.00;101993.34;6086178;19;20497;-75
2024/03/16 08:49:41;;;;;;;3.55;1.35;;;;;;;8.15;100.00;101995.94;6086617;19;20012;-75
2024/03/16 08:51:43;;;;;;;5.13;1.50;;;;;;;8.02;100.00;101994.34;6084120;19;20010;-74
2024/03/16 08:53:48;;;;;;;2.65;1.00;;;;;;;7.97;100.00;102006.63;6081619;19;20014;-76
2024/03/16 08:55:56;;;;;;;6.00;1.05;;;;;;;7.96;100.00;102005.75;6083493;19;20034;-75
2024/03/16 08:57:59;;;;;;;4.00;1.48;;;;;;;8.07;100.00;102014.34;6085184;19;20507;-74
2024/03/16 09:00:05;;;;;;;4.30;1.45;;;;;;;8.11;100.00;102015.19;6084201;19;20006;-74
2024/03/16 09:02:11;;;;;;;4.35;1.40;;;;;;;8.10;100.00;102021.28;6085765;19;20112;-75
2024/03/16 09:04:16;;;;;;;4.10;1.27;;;;;;;8.20;100.00;102017.69;6085142;19;20602;-75
2024/03/16 09:06:24;;;;;;;5.07;1.30;;;;;;;8.32;100.00;102022.78;6082512;19;20009;-75
2024/03/16 09:08:31;;;;;;;1.63;0.98;;;;;;;8.47;100.00;102028.75;6085700;19;20882;-74
2024/03/16 09:10:36;;;;;;;10.80;1.70;;;;;;;8.62;100.00;102028.56;6083430;19;20381;-75
2024/03/16 09:12:41;;;;;;;0.93;0.80;;;;;;;8.49;100.00;102040.94;6082198;19;20002;-74
2024/03/16 09:14:44;;;;;;;4.40;1.25;;;;;;;8.58;100.00;102042.56;6085200;19;20011;-74
2024/03/16 09:16:49;;;;;;;;;;;;;;;8.73;100.00;102052.84;6087920;19;20009;-75
2024/03/16 09:18:57;;;;;;;2.08;1.40;;;;;;;8.92;100.00;102053.47;6088290;19;19910;-74
2024/03/16 09:21:05;;;;;;;2.53;1.30;;;;;;;8.90;100.00;102050.03;6088183;19;20126;-75
2024/03/16 09:23:13;;;;;;;1.85;1.00;;;;;;;8.84;100.00;102057.94;6088454;19;20014;-74
2024/03/16 09:25:20;;;;;;;5.63;1.10;;;;;;;8.67;100.00;102063.44;6089438;19;20014;-73
2024/03/16 09:27:23;;;;;;;3.95;1.17;;;;;;;8.68;100.00;102056.44;6090463;19;20082;-75
2024/03/16 09:29:29;;;;;;;1.77;1.38;;;;;;;8.88;100.00;102066.66;6090355;19;20015;-74
2024/03/16 09:31:34;;;;;;;1.42;1.35;;;;;;;9.13;100.00;102068.00;6087190;19;20475;-76
2024/03/16 09:33:39;;;;;;;3.72;1.15;;;;;;;9.04;100.00;102078.66;6089638;19;20007;-75
2024/03/16 09:35:45;;;;;;;2.13;0.98;;;;;;;8.93;100.00;102080.56;6089751;19;20043;-75
2024/03/16 09:37:50;;;;;;;2.88;1.20;;;;;;;8.94;100.00;102084.91;6088527;19;20101;-74
2024/03/16 09:39:58;;;;;;;3.33;1.10;;;;;;;8.92;100.00;102081.44;6089577;19;23843;-74
2024/03/16 09:42:05;;;;;;;1.15;1.05;;;;;;;8.78;100.00;102092.13;6090012;19;20038;-75
2024/03/16 09:44:14;;;;;;;10.05;1.50;;;;;;;8.70;100.00;102089.59;6088425;19;20010;-74